Time;durP1;ratioP1;P1;durP2;ratioP2;P2;SDS_P1;SDS_P2;PMS_P1;PMS_P2;Temp;Humidity;BMP_temperature;BMP_pressure;BME280_temperature;BME280_humidity;BME280_pressure;Samples;Min_cycle;Max_cycle;Signal;HPM_P1;HPM_P2
2022/04/26 03:37:08;;;;;;;67.68;10.00;;;;;;;9.82;100.00;97518.03;5000929;28;20052;-56
2022/04/26 03:39:34;;;;;;;69.07;9.98;;;;;;;9.78;100.00;97519.09;5001196;28;20030;-55
2022/04/26 03:42:02;;;;;;;92.38;10.93;;;;;;;9.78;100.00;97523.47;5001107;28;20030;-56
2022/04/26 03:44:28;;;;;;;79.55;9.93;;;;;;;9.82;100.00;97518.03;4999437;28;20026;-54
2022/04/26 03:46:53;;;;;;;86.75;10.82;;;;;;;9.68;100.00;97524.78;4999639;28;20045;-55
2022/04/26 03:49:19;;;;;;;65.78;10.10;;;;;;;9.55;100.00;97527.94;5001334;28;20172;-56
2022/04/26 03:51:45;;;;;;;69.75;10.73;;;;;;;9.47;100.00;97529.22;5001353;28;20393;-56
2022/04/26 03:54:10;;;;;;;106.82;12.57;;;;;;;9.37;100.00;97534.78;5003381;28;20033;-55
2022/04/26 03:56:35;;;;;;;77.10;11.07;;;;;;;9.62;100.00;97536.31;5003357;28;20042;-55
2022/04/26 03:59:01;;;;;;;90.72;13.68;;;;;;;9.54;100.00;97546.22;5004231;28;20022;-57
2022/04/26 04:01:26;;;;;;;86.38;13.90;;;;;;;9.58;100.00;97550.41;5004025;28;20045;-55
2022/04/26 04:03:51;;;;;;;90.55;15.48;;;;;;;9.24;100.00;97554.44;5004704;28;20041;-55
2022/04/26 04:06:16;;;;;;;90.28;13.93;;;;;;;9.20;100.00;97555.50;5006244;28;20046;-54
2022/04/26 04:08:42;;;;;;;79.93;13.50;;;;;;;9.48;100.00;97554.31;5006346;28;20861;-55
2022/04/26 04:11:07;;;;;;;78.75;13.18;;;;;;;9.12;100.00;97562.81;5002261;28;20696;-56
2022/04/26 04:13:32;;;;;;;94.15;13.02;;;;;;;9.34;100.00;97563.56;5004647;28;20030;-55
2022/04/26 04:15:58;;;;;;;81.95;14.32;;;;;;;8.97;100.00;97565.13;5004056;28;20045;-56
2022/04/26 04:21:07;;;;;;;90.70;13.63;;;;;;;8.98;100.00;97564.19;5002686;28;20420;-55
2022/04/26 04:23:36;;;;;;;93.22;13.95;;;;;;;9.32;100.00;97570.59;5000628;28;20542;-55
2022/04/26 04:26:01;;;;;;;97.00;14.35;;;;;;;9.04;100.00;97565.69;5000477;28;20088;-54
2022/04/26 04:28:26;;;;;;;97.15;14.45;;;;;;;9.01;100.00;97563.25;5005281;28;20033;-56
2022/04/26 04:30:52;;;;;;;88.88;14.25;;;;;;;8.91;100.00;97564.53;5002452;28;20047;-56
2022/04/26 04:33:17;;;;;;;88.50;14.57;;;;;;;8.89;100.00;97567.19;5003385;28;20042;-54
2022/04/26 04:35:42;;;;;;;92.28;15.02;;;;;;;8.88;100.00;97570.72;5000208;28;20163;-54
2022/04/26 04:38:08;;;;;;;93.32;14.52;;;;;;;9.21;100.00;97578.03;5005977;28;20026;-55
2022/04/26 04:40:33;;;;;;;83.35;13.93;;;;;;;9.20;100.00;97581.53;5005386;28;20117;-54
2022/04/26 04:42:59;;;;;;;89.90;13.90;;;;;;;9.10;100.00;97573.25;5002780;28;20036;-54
2022/04/26 04:45:24;;;;;;;85.55;13.73;;;;;;;9.31;100.00;97578.47;5003466;28;20977;-53
2022/04/26 04:47:49;;;;;;;85.68;15.55;;;;;;;9.45;100.00;97576.97;5004451;28;20060;-55
2022/04/26 04:50:15;;;;;;;78.78;14.50;;;;;;;9.09;100.00;97591.53;5003448;28;20633;-56
2022/04/26 04:52:40;;;;;;;79.85;15.75;;;;;;;9.40;100.00;97593.69;5004987;28;20065;-55
2022/04/26 04:55:06;;;;;;;83.28;15.10;;;;;;;9.52;100.00;97594.91;5004600;28;20111;-57
2022/04/26 04:57:31;;;;;;;85.47;15.15;;;;;;;9.22;100.00;97590.09;5001608;28;20141;-56
2022/04/26 04:59:59;;;;;;;83.60;14.50;;;;;;;9.14;100.00;97592.19;5004300;28;20399;-54
2022/04/26 05:02:25;;;;;;;72.72;14.27;;;;;;;9.42;100.00;97587.50;5003252;28;20076;-55
2022/04/26 05:04:50;;;;;;;117.50;16.40;;;;;;;9.53;100.00;97591.41;5002827;28;20022;-55
2022/04/26 05:07:15;;;;;;;90.25;15.63;;;;;;;9.58;100.00;97592.06;5003443;28;20414;-55
2022/04/26 05:09:41;;;;;;;83.95;14.77;;;;;;;9.61;100.00;97592.78;5001858;28;20022;-55
2022/04/26 05:12:07;;;;;;;90.85;14.77;;;;;;;9.66;100.00;97595.16;5005011;28;20041;-54
2022/04/26 05:14:32;;;;;;;84.78;13.55;;;;;;;9.48;100.00;97601.16;5005625;28;20059;-55
2022/04/26 05:16:58;;;;;;;80.03;14.02;;;;;;;9.63;100.00;97595.28;5001827;28;20209;-55
2022/04/26 05:19:23;;;;;;;81.85;14.23;;;;;;;9.61;100.00;97599.72;5003861;28;20117;-54
2022/04/26 05:21:48;;;;;;;81.25;15.43;;;;;;;9.23;100.00;97603.06;5004205;28;20506;-55
2022/04/26 05:26:57;;;;;;;95.75;15.70;;;;;;;9.35;100.00;97604.28;5001501;28;20321;-55
2022/04/26 05:29:23;;;;;;;84.55;15.68;;;;;;;9.41;100.00;97613.59;5005192;28;20030;-55
2022/04/26 05:31:48;;;;;;;80.00;14.95;;;;;;;9.46;100.00;97609.03;5003806;28;20480;-56
2022/04/26 05:34:14;;;;;;;90.70;14.82;;;;;;;9.32;100.00;97609.66;5005330;28;21036;-55
2022/04/26 05:36:39;;;;;;;93.43;16.45;;;;;;;9.45;100.00;97613.41;5001562;28;20057;-55
2022/04/26 05:39:04;;;;;;;95.45;15.80;;;;;;;9.62;100.00;97606.63;5003943;28;20024;-55
2022/04/26 05:41:29;;;;;;;104.15;16.60;;;;;;;9.51;100.00;97607.09;5002479;28;20053;-55
2022/04/26 05:43:55;;;;;;;76.57;13.52;;;;;;;9.63;100.00;97606.56;5001852;28;20029;-57
2022/04/26 05:46:20;;;;;;;87.38;14.25;;;;;;;9.65;100.00;97603.91;5000526;28;20042;-57
2022/04/26 05:48:45;;;;;;;106.43;14.48;;;;;;;9.88;100.00;97609.84;5001011;28;20037;-56
2022/04/26 05:51:11;;;;;;;87.28;14.38;;;;;;;9.65;100.00;97607.34;5003271;28;20656;-55
2022/04/26 05:53:37;;;;;;;85.43;14.10;;;;;;;9.68;100.00;97613.31;5004778;28;20784;-55
2022/04/26 05:56:04;;;;;;;84.28;14.25;;;;;;;9.68;100.00;97611.56;5000988;28;20152;-55
2022/04/26 05:58:30;;;;;;;86.07;14.40;;;;;;;9.91;100.00;97609.72;5002757;28;20561;-55
2022/04/26 06:00:55;;;;;;;78.70;14.57;;;;;;;9.88;100.00;97615.06;5002474;28;20727;-55
2022/04/26 06:03:21;;;;;;;90.25;14.75;;;;;;;9.70;100.00;97616.72;5002512;28;20043;-54
2022/04/26 06:05:46;;;;;;;94.75;16.02;;;;;;;9.19;100.00;97617.13;5002188;28;20041;-56
2022/04/26 06:08:12;;;;;;;86.07;15.15;;;;;;;9.61;100.00;97633.56;5003822;28;20037;-55
2022/04/26 06:10:39;;;;;;;98.65;15.68;;;;;;;9.69;100.00;97646.28;5001767;28;20038;-55
2022/04/26 06:13:04;;;;;;;64.60;13.13;;;;;;;9.81;100.00;97651.81;5003738;28;20034;-55
2022/04/26 06:15:29;;;;;;;96.00;15.27;;;;;;;10.14;100.00;97653.81;5003069;28;20049;-55
2022/04/26 06:17:55;;;;;;;92.68;16.48;;;;;;;9.96;100.00;97644.22;5002002;28;20091;-55
2022/04/26 06:20:23;;;;;;;82.55;13.88;;;;;;;9.82;100.00;97639.63;5002046;28;20037;-55
2022/04/26 06:22:49;;;;;;;88.97;14.05;;;;;;;10.08;100.00;97628.03;5000943;28;20432;-54
2022/04/26 06:25:14;;;;;;;99.78;14.38;;;;;;;10.10;100.00;97625.38;5001220;28;20107;-54
2022/04/26 06:27:40;;;;;;;103.63;15.32;;;;;;;9.90;100.00;97610.63;5002076;28;20068;-54
2022/04/26 06:30:05;;;;;;;77.28;15.23;;;;;;;9.75;100.00;97610.38;5003061;28;20595;-54
2022/04/26 06:32:31;;;;;;;96.80;15.13;;;;;;;10.01;100.00;97618.81;5003154;28;20052;-55
2022/04/26 06:34:56;;;;;;;107.30;15.18;;;;;;;9.65;100.00;97614.31;5002118;28;20037;-55
2022/04/26 06:37:23;;;;;;;88.57;15.18;;;;;;;9.89;100.00;97606.31;5005287;28;20037;-55
2022/04/26 06:39:49;;;;;;;86.95;15.23;;;;;;;9.96;100.00;97607.72;5001729;28;20061;-55
2022/04/26 06:42:14;;;;;;;85.07;15.48;;;;;;;10.20;100.00;97601.44;5000296;28;20129;-54
2022/04/26 06:44:39;;;;;;;106.07;14.68;;;;;;;10.36;100.00;97600.75;5003418;28;20743;-54
2022/04/26 06:47:05;;;;;;;84.68;14.95;;;;;;;10.30;100.00;97603.63;5002497;28;20107;-56
2022/04/26 06:49:30;;;;;;;75.00;13.07;;;;;;;10.49;100.00;97599.25;4999803;28;20030;-55
2022/04/26 06:51:55;;;;;;;78.68;13.38;;;;;;;10.32;100.00;97604.41;4999885;28;20045;-56
2022/04/26 06:54:21;;;;;;;81.93;13.52;;;;;;;10.66;100.00;97593.25;5002549;28;20025;-55
2022/04/26 06:56:46;;;;;;;96.35;15.93;;;;;;;9.94;100.00;97588.72;4999294;28;20041;-55
2022/04/26 06:59:13;;;;;;;79.93;13.02;;;;;;;10.76;100.00;97604.09;5004776;28;20061;-55
2022/04/26 07:01:39;;;;;;;80.85;13.02;;;;;;;10.61;100.00;97590.84;4999299;28;20045;-55
2022/04/26 07:04:04;;;;;;;82.25;15.00;;;;;;;10.29;100.00;97594.94;5002293;28;20033;-55
2022/04/26 07:06:30;;;;;;;95.72;15.43;;;;;;;10.46;100.00;97602.03;5002466;28;20507;-55
2022/04/26 07:08:56;;;;;;;101.22;15.95;;;;;;;10.21;100.00;97591.84;5002768;28;20121;-56
2022/04/26 07:11:21;;;;;;;84.47;14.35;;;;;;;10.62;100.00;97602.13;5001010;28;20034;-55
2022/04/26 07:13:48;;;;;;;96.65;15.05;;;;;;;10.19;100.00;97599.72;5003434;28;20565;-55
2022/04/26 07:16:13;;;;;;;85.10;14.27;;;;;;;10.54;100.00;97604.25;5000874;28;20045;-55
2022/04/26 07:18:38;;;;;;;102.47;16.00;;;;;;;10.00;100.00;97599.72;5003680;28;20030;-54
2022/04/26 07:21:03;;;;;;;99.47;14.30;;;;;;;10.32;100.00;97610.47;5001296;28;20139;-54
2022/04/26 07:23:29;;;;;;;87.97;13.75;;;;;;;10.53;100.00;97612.97;5002264;28;20037;-55
2022/04/26 07:25:57;;;;;;;70.20;11.63;;;;;;;10.73;100.00;97609.44;4999560;28;20498;-55
2022/04/26 07:28:23;;;;;;;83.82;14.98;;;;;;;10.48;100.00;97615.81;4999527;28;20072;-56
2022/04/26 07:30:49;;;;;;;106.68;17.10;;;;;;;10.27;100.00;97606.34;4998689;28;20065;-55
2022/04/26 07:35:58;;;;;;;103.03;15.25;;;;;;;10.63;100.00;97616.03;5002014;28;20133;-55
2022/04/26 07:38:24;;;;;;;74.15;14.35;;;;;;;10.48;100.00;97621.03;5004832;28;20109;-57
2022/04/26 07:40:49;;;;;;;76.32;10.95;;;;;;;10.66;100.00;97619.34;5004978;28;20852;-54
2022/04/26 07:43:15;;;;;;;99.10;14.35;;;;;;;10.64;100.00;97612.47;5005217;28;20484;-55
2022/04/26 07:45:42;;;;;;;91.28;14.10;;;;;;;10.69;100.00;97621.78;5005020;28;20045;-55
2022/04/26 07:48:08;;;;;;;99.05;15.75;;;;;;;10.75;100.00;97612.81;5006016;28;20030;-54
2022/04/26 07:50:35;;;;;;;94.63;15.70;;;;;;;10.80;100.00;97610.84;5004652;28;20038;-57
2022/04/26 07:53:01;;;;;;;85.13;14.55;;;;;;;10.54;100.00;97615.53;5004869;28;20033;-56
2022/04/26 07:55:28;;;;;;;91.00;13.95;;;;;;;10.79;100.00;97624.81;5002025;28;20077;-55
2022/04/26 07:57:54;;;;;;;69.25;11.98;;;;;;;10.95;100.00;97623.16;5005155;28;20634;-54
2022/04/26 08:00:19;;;;;;;83.78;14.35;;;;;;;10.96;100.00;97627.44;5005114;28;20044;-54
2022/04/26 08:02:45;;;;;;;81.85;14.77;;;;;;;10.61;100.00;97629.97;5005846;28;20018;-55
2022/04/26 08:05:11;;;;;;;113.45;15.65;;;;;;;10.57;100.00;97628.44;5006417;28;20022;-56
2022/04/26 08:07:39;;;;;;;96.28;15.00;;;;;;;10.73;100.00;97632.91;5004347;28;20034;-54
2022/04/26 08:10:09;;;;;;;82.88;15.43;;;;;;;10.25;100.00;97631.66;5004120;28;20203;-54
2022/04/26 08:12:35;;;;;;;88.45;14.55;;;;;;;10.67;100.00;97638.44;5003778;28;20423;-54
2022/04/26 08:15:00;;;;;;;79.93;13.80;;;;;;;11.04;100.00;97628.84;5004777;28;20036;-54
2022/04/26 08:17:26;;;;;;;93.60;15.98;;;;;;;10.35;100.00;97622.53;5003310;28;20034;-55
2022/04/26 08:19:51;;;;;;;90.63;14.82;;;;;;;10.73;100.00;97640.75;5005509;28;20026;-54
2022/04/26 08:22:17;;;;;;;94.90;15.65;;;;;;;10.73;100.00;97640.75;5003391;28;20060;-54
2022/04/26 08:27:26;;;;;;;71.35;13.68;;;;;;;11.23;100.00;97637.47;5003335;28;20064;-54
2022/04/26 08:29:53;;;;;;;76.13;15.52;;;;;;;10.73;100.00;97640.75;5003053;28;20026;-54
2022/04/26 08:32:18;;;;;;;107.75;15.52;;;;;;;11.03;100.00;97648.00;5003777;28;20050;-55
2022/04/26 08:34:44;;;;;;;119.03;15.10;;;;;;;11.18;100.00;97647.28;5002924;28;20045;-55
2022/04/26 08:37:09;;;;;;;82.20;13.50;;;;;;;11.29;100.00;97647.59;5005731;28;20042;-54
2022/04/26 08:39:35;;;;;;;81.07;13.07;;;;;;;11.29;100.00;97644.97;5002068;28;20022;-54
2022/04/26 08:42:02;;;;;;;93.53;15.90;;;;;;;11.03;100.00;97650.63;5003556;28;20088;-55
2022/04/26 08:44:29;;;;;;;71.57;12.80;;;;;;;11.17;100.00;97651.66;5003793;28;20277;-56
2022/04/26 08:52:25;;;;;;;75.18;13.63;;;;;;;11.14;100.00;97650.97;5003640;28;20515;-54
2022/04/26 08:54:50;;;;;;;98.25;15.00;;;;;;;11.33;100.00;97640.47;5001640;28;20060;-55
2022/04/26 08:57:16;;;;;;;88.05;14.88;;;;;;;10.91;100.00;97652.91;5004365;28;20080;-55
2022/04/26 08:59:49;;;;;;;75.32;13.52;;;;;;;11.64;100.00;97655.44;5004332;28;20063;-55
2022/04/26 09:02:19;;;;;;;78.82;13.68;;;;;;;11.50;100.00;97647.44;5003333;28;20052;-55
2022/04/26 09:04:49;;;;;;;108.30;15.00;;;;;;;11.61;100.00;97647.75;5002724;28;20038;-54
2022/04/26 09:07:31;;;;;;;72.00;13.45;;;;;;;11.83;100.00;97649.25;5003062;28;20121;-56
2022/04/26 09:10:08;;;;;;;89.88;14.13;;;;;;;11.46;100.00;97648.53;5002277;28;20092;-55
2022/04/26 09:13:04;;;;;;;81.95;12.57;;;;;;;11.34;100.00;97656.06;5004783;28;20045;-56
2022/04/26 09:15:51;;;;;;;82.50;12.82;;;;;;;11.17;100.00;97656.88;5002067;28;20396;-54
2022/04/26 09:18:29;;;;;;;89.13;13.80;;;;;;;11.27;100.00;97646.81;5005223;28;20128;-54
2022/04/26 09:20:56;;;;;;;75.97;13.90;;;;;;;11.22;100.00;97651.44;5018992;28;20045;-54
2022/04/26 09:23:27;;;;;;;83.07;11.65;;;;;;;11.48;100.00;97659.72;5005183;28;20045;-53
2022/04/26 09:25:56;;;;;;;80.05;13.23;;;;;;;11.45;100.00;97657.25;5000054;28;20482;-54
2022/04/26 09:28:24;;;;;;;94.30;14.38;;;;;;;11.26;100.00;97654.72;5004100;28;20026;-54
2022/04/26 09:30:50;;;;;;;82.82;13.25;;;;;;;11.44;100.00;97653.81;5001034;28;20046;-54
2022/04/26 09:33:32;;;;;;;102.15;14.60;;;;;;;11.35;100.00;97655.13;5004499;28;20083;-55
2022/04/26 09:36:05;;;;;;;79.77;12.50;;;;;;;11.31;100.00;97660.59;5003517;28;20049;-54
2022/04/26 09:38:33;;;;;;;89.30;12.93;;;;;;;11.46;100.00;97657.19;5004177;28;20879;-53
2022/04/26 09:41:04;;;;;;;94.03;12.98;;;;;;;11.58;100.00;97659.19;5004425;28;20041;-56
2022/04/26 09:43:30;;;;;;;93.43;13.93;;;;;;;11.53;100.00;97657.75;5003303;28;20026;-55
2022/04/26 09:45:57;;;;;;;81.60;11.93;;;;;;;11.34;100.00;97658.66;4998767;28;20052;-55
2022/04/26 09:48:32;;;;;;;93.15;13.02;;;;;;;11.31;100.00;97658.81;5001099;28;20036;-54
2022/04/26 09:50:58;;;;;;;74.88;12.73;;;;;;;11.43;100.00;97662.56;5004385;28;20125;-54
2022/04/26 09:53:25;;;;;;;87.50;13.13;;;;;;;11.45;100.00;97663.34;4999309;28;20029;-55
2022/04/26 09:55:54;;;;;;;92.57;14.15;;;;;;;11.33;100.00;97675.22;5002653;28;20120;-53
2022/04/26 09:58:21;;;;;;;91.40;14.15;;;;;;;11.34;100.00;97676.94;5002088;28;20033;-54
2022/04/26 10:00:49;;;;;;;91.95;13.68;;;;;;;11.51;100.00;97680.47;5001481;28;20042;-54
2022/04/26 10:03:20;;;;;;;77.30;13.85;;;;;;;11.43;100.00;97687.84;4999187;28;20102;-55
2022/04/26 10:05:49;;;;;;;68.93;12.77;;;;;;;11.16;100.00;97681.28;5000485;28;20041;-54
2022/04/26 10:08:16;;;;;;;85.40;12.75;;;;;;;11.08;100.00;97682.56;5002841;28;20021;-54
2022/04/26 10:10:43;;;;;;;88.43;11.70;;;;;;;11.37;100.00;97689.81;5001952;28;20038;-56
2022/04/26 10:15:56;;;;;;;85.25;12.98;;;;;;;11.41;100.00;97689.69;5002680;28;20052;-54
2022/04/26 10:18:32;;;;;;;86.72;13.98;;;;;;;11.35;100.00;97696.06;5005163;28;20133;-53
2022/04/26 10:20:59;;;;;;;86.88;12.18;;;;;;;11.06;100.00;97700.91;5004065;28;20049;-54
2022/04/26 10:23:24;;;;;;;79.13;11.68;;;;;;;10.95;100.00;97703.19;5001017;28;20033;-54
2022/04/26 10:26:11;;;;;;;80.70;11.55;;;;;;;11.13;100.00;97696.25;5001918;28;20046;-54
2022/04/26 10:28:51;;;;;;;72.95;10.70;;;;;;;10.89;100.00;97704.31;5003544;28;20026;-55
2022/04/26 10:31:22;;;;;;;71.65;11.63;;;;;;;10.99;100.00;97705.59;5001626;28;20049;-54
2022/04/26 10:33:47;;;;;;;100.80;12.70;;;;;;;11.17;100.00;97709.09;5003222;28;20021;-54
2022/04/26 10:36:27;;;;;;;74.88;10.35;;;;;;;11.42;100.00;97704.44;5001087;28;20068;-55
2022/04/26 10:39:05;;;;;;;89.35;11.65;;;;;;;11.51;100.00;97698.78;5002811;28;20044;-53
2022/04/26 10:41:44;;;;;;;83.57;10.57;;;;;;;11.43;100.00;97703.50;5002229;28;20034;-54
2022/04/26 10:44:43;;;;;;;82.70;11.45;;;;;;;11.51;100.00;97702.22;5002897;28;20114;-55
2022/04/26 10:47:09;;;;;;;78.50;10.93;;;;;;;11.54;100.00;97706.44;5001045;28;20053;-55
2022/04/26 10:49:43;;;;;;;78.97;10.65;;;;;;;11.70;100.00;97715.19;5001402;28;20037;-56
2022/04/26 10:52:14;;;;;;;84.78;11.18;;;;;;;11.42;100.00;97707.06;5000665;28;20066;-55
2022/04/26 10:54:48;;;;;;;66.05;9.73;;;;;;;11.54;100.00;97711.66;5000804;28;20030;-55
2022/04/26 10:57:26;;;;;;;77.88;11.48;;;;;;;11.35;100.00;97712.56;5001629;28;20685;-55
2022/04/26 10:59:54;;;;;;;73.47;10.52;;;;;;;11.55;100.00;97723.81;5003415;28;20024;-56
2022/04/26 11:02:21;;;;;;;77.72;11.35;;;;;;;11.54;100.00;97722.97;5003448;28;20718;-54
2022/04/26 11:04:46;;;;;;;108.53;11.88;;;;;;;12.08;100.00;97730.75;5002258;28;20874;-55
2022/04/26 11:07:13;;;;;;;84.85;10.73;;;;;;;12.00;100.00;97722.44;5003010;28;20034;-55
2022/04/26 11:09:49;;;;;;;105.88;12.40;;;;;;;11.72;100.00;97731.63;5001696;28;20080;-56
2022/04/26 11:12:19;;;;;;;88.65;10.25;;;;;;;12.33;100.00;97729.47;5000809;28;20127;-53
2022/04/26 11:14:46;;;;;;;120.57;13.20;;;;;;;12.02;100.00;97738.91;5000485;28;20113;-54
2022/04/26 11:17:11;;;;;;;85.60;10.25;;;;;;;12.11;100.00;97743.66;5002816;28;20623;-55
2022/04/26 11:19:38;;;;;;;82.45;10.23;;;;;;;12.27;100.00;97737.63;5001209;28;20113;-55
2022/04/26 11:22:04;;;;;;;69.97;9.43;;;;;;;12.09;100.00;97739.41;5000630;28;20064;-55
2022/04/26 11:29:58;;;;;;;75.15;9.23;;;;;;;11.70;100.00;97748.31;5002692;28;20721;-55
2022/04/26 11:32:30;;;;;;;79.03;8.55;;;;;;;11.68;100.00;97744.94;5001336;28;20038;-56
2022/04/26 11:34:56;;;;;;;;;;;;;;;11.56;100.00;97754.22;5001538;28;20036;-53
2022/04/26 11:37:22;;;;;;;79.90;8.07;;;;;;;11.84;100.00;97753.72;5000220;28;19913;-53
2022/04/26 11:39:47;;;;;;;70.65;7.43;;;;;;;11.61;100.00;97749.63;5002933;28;20384;-54
2022/04/26 11:42:13;;;;;;;69.88;7.30;;;;;;;11.77;100.00;97750.56;4999957;28;20488;-55
2022/04/26 11:44:56;;;;;;;78.93;7.75;;;;;;;11.92;100.00;97755.97;5002197;28;20037;-53
2022/04/26 11:47:39;;;;;;;71.40;7.28;;;;;;;11.80;100.00;97757.41;5001780;28;20505;-53
2022/04/26 11:50:16;;;;;;;65.13;6.82;;;;;;;11.61;100.00;97760.06;5001299;28;20036;-54
2022/04/26 11:52:45;;;;;;;93.93;8.02;;;;;;;11.74;100.00;97761.19;5003522;28;20403;-53
2022/04/26 11:55:27;;;;;;;73.18;7.28;;;;;;;11.91;100.00;97762.09;5003876;28;20777;-53
2022/04/26 11:58:08;;;;;;;63.28;6.97;;;;;;;11.74;100.00;97760.31;5000688;28;20824;-53
2022/04/26 12:00:35;;;;;;;90.10;7.60;;;;;;;12.05;100.00;97758.81;5000968;28;20037;-57
2022/04/26 12:03:04;;;;;;;72.35;7.10;;;;;;;12.10;100.00;97769.88;5001252;28;20034;-57
2022/04/26 12:05:33;;;;;;;75.93;7.53;;;;;;;11.95;100.00;97769.72;5000410;28;20116;-57
2022/04/26 12:07:58;;;;;;;70.65;7.57;;;;;;;12.21;100.00;97772.78;5000234;28;20418;-57
2022/04/26 12:10:32;;;;;;;65.32;6.95;;;;;;;12.27;100.00;97774.25;4998239;28;20720;-57
2022/04/26 12:13:02;;;;;;;54.25;6.72;;;;;;;12.21;100.00;97774.56;5002707;28;20046;-56
2022/04/26 12:15:30;;;;;;;61.78;7.18;;;;;;;12.57;100.00;97774.41;4996823;28;20034;-57
2022/04/26 12:18:07;;;;;;;71.53;7.63;;;;;;;12.18;100.00;97765.09;5004678;28;20072;-55
2022/04/26 12:20:36;;;;;;;59.92;6.35;;;;;;;12.31;100.00;97768.78;5005471;28;20022;-56
2022/04/26 12:23:03;;;;;;;63.40;7.45;;;;;;;12.23;100.00;97772.72;5004113;28;20032;-57
2022/04/26 12:25:29;;;;;;;63.63;7.53;;;;;;;12.39;100.00;97773.63;5001171;28;20037;-57
2022/04/26 12:28:03;;;;;;;91.50;8.90;;;;;;;12.42;100.00;97778.66;5002259;28;20057;-55
2022/04/26 12:30:30;;;;;;;69.53;7.75;;;;;;;12.28;100.00;97773.34;5005800;28;20029;-54
2022/04/26 12:32:55;;;;;;;83.90;8.00;;;;;;;12.16;100.00;97769.56;5005464;28;20017;-55
2022/04/26 12:35:21;;;;;;;76.13;8.07;;;;;;;11.98;100.00;97770.50;5002839;28;20466;-55
2022/04/26 12:37:47;;;;;;;54.72;6.85;;;;;;;12.37;100.00;97770.25;5006470;28;20665;-55
2022/04/26 12:40:15;;;;;;;76.97;7.95;;;;;;;12.33;100.00;97769.56;5001841;28;20030;-55
2022/04/26 12:42:42;;;;;;;55.03;6.97;;;;;;;13.21;100.00;97757.00;5006615;28;20018;-56
2022/04/26 12:45:21;;;;;;;70.85;7.68;;;;;;;13.66;100.00;97760.59;5005664;28;20117;-54
2022/04/26 12:50:53;;;;;;;72.93;7.70;;;;;;;13.08;100.00;97763.84;5004512;28;20041;-56
2022/04/26 12:53:28;;;;;;;73.65;7.50;;;;;;;13.65;100.00;97760.69;5004092;28;20040;-56
2022/04/26 12:56:05;;;;;;;67.55;7.20;;;;;;;13.42;100.00;97767.25;5003839;28;20044;-56
2022/04/26 12:58:35;;;;;;;73.05;7.43;;;;;;;14.43;100.00;97756.09;5003147;28;20022;-55
2022/04/26 13:01:02;;;;;;;66.40;7.30;;;;;;;13.83;100.00;97764.88;5005619;28;20040;-57
2022/04/26 13:03:27;;;;;;;59.17;6.65;;;;;;;14.11;100.00;97765.03;5004225;28;20132;-54
2022/04/26 13:06:08;;;;;;;63.28;6.65;;;;;;;13.56;100.00;97762.06;5001714;28;20233;-55
2022/04/26 13:08:34;;;;;;;59.47;6.50;;;;;;;14.24;100.00;97771.25;5002502;28;20022;-55
2022/04/26 13:11:00;;;;;;;63.60;7.00;;;;;;;14.34;100.00;97764.53;5003616;28;20030;-55
2022/04/26 13:13:27;;;;;;;101.72;8.68;;;;;;;14.45;100.00;97769.97;5004128;28;20069;-56
2022/04/26 13:15:53;;;;;;;78.78;8.02;;;;;;;14.61;100.00;97767.28;5003015;28;20196;-56
2022/04/26 13:18:18;;;;;;;95.43;8.98;;;;;;;14.11;100.00;97776.38;5000807;28;20396;-57
2022/04/26 13:20:45;;;;;;;73.60;7.55;;;;;;;13.89;100.00;97774.16;5003450;28;20030;-56
2022/04/26 13:23:11;;;;;;;70.82;7.20;;;;;;;13.91;100.00;97777.53;5003184;28;20041;-55
2022/04/26 13:25:37;;;;;;;75.97;7.82;;;;;;;13.15;100.00;97783.53;5001048;28;20231;-56
2022/04/26 13:28:03;;;;;;;71.28;7.53;;;;;;;13.04;100.00;97788.50;5004187;28;20509;-56
2022/04/26 13:30:29;;;;;;;69.00;7.03;;;;;;;12.70;100.00;97790.31;5004422;28;20041;-55
2022/04/26 13:32:54;;;;;;;59.55;6.85;;;;;;;12.48;100.00;97794.06;5004529;28;20057;-56
2022/04/26 13:35:21;;;;;;;65.95;7.00;;;;;;;12.50;100.00;97792.22;5003133;28;20112;-55
2022/04/26 13:37:46;;;;;;;79.93;7.43;;;;;;;12.13;100.00;97794.09;5003675;28;20372;-55
2022/04/26 13:40:12;;;;;;;61.42;6.82;;;;;;;12.45;100.00;97793.38;5004074;28;20032;-55
2022/04/26 13:42:37;;;;;;;82.97;7.90;;;;;;;12.29;100.00;97798.53;5003617;28;20032;-57
2022/04/26 13:45:03;;;;;;;67.72;7.18;;;;;;;12.14;100.00;97798.38;4999979;28;20032;-56
2022/04/26 13:47:29;;;;;;;63.35;7.15;;;;;;;12.10;100.00;97803.88;5002085;28;20127;-56
2022/04/26 13:49:54;;;;;;;61.10;7.45;;;;;;;12.03;100.00;97802.47;5003710;28;20037;-56
2022/04/26 13:52:21;;;;;;;78.93;8.05;;;;;;;12.29;100.00;97809.00;5002731;28;20038;-57
2022/04/26 13:54:47;;;;;;;112.53;9.50;;;;;;;12.52;100.00;97794.75;4999916;28;20076;-56
2022/04/26 13:57:13;;;;;;;73.32;7.43;;;;;;;12.69;100.00;97786.00;5003112;28;20037;-56
2022/04/26 13:59:38;;;;;;;73.65;7.60;;;;;;;13.25;100.00;97789.97;5003451;28;20040;-55
2022/04/26 14:02:05;;;;;;;59.58;6.53;;;;;;;13.07;100.00;97785.72;5005325;28;20034;-56
2022/04/26 14:04:30;;;;;;;75.38;7.63;;;;;;;13.55;100.00;97786.59;5003061;28;20411;-56
2022/04/26 14:06:56;;;;;;;70.13;6.95;;;;;;;13.25;100.00;97768.13;5003126;28;20040;-56
2022/04/26 14:09:22;;;;;;;59.20;6.22;;;;;;;14.03;100.00;97760.25;5007175;28;20037;-56
2022/04/26 14:11:48;;;;;;;82.03;7.03;;;;;;;14.91;100.00;97762.88;5002020;28;20054;-55
2022/04/26 14:22:30;;;;;;;59.05;6.47;;;;;;;15.13;100.00;97776.34;5001810;28;20088;-56
2022/04/26 14:24:58;;;;;;;87.55;7.00;;;;;;;15.12;100.00;97787.78;5002402;28;20530;-56
2022/04/26 14:27:24;;;;;;;59.83;5.70;;;;;;;14.85;100.00;97782.47;5001815;28;20045;-55
2022/04/26 14:29:49;;;;;;;66.75;6.38;;;;;;;14.57;100.00;97786.75;5003931;28;20067;-55
2022/04/26 14:32:15;;;;;;;69.95;6.53;;;;;;;14.71;100.00;97783.31;5000433;28;20811;-55
2022/04/26 14:34:40;;;;;;;93.00;7.68;;;;;;;14.57;100.00;97788.53;5004792;28;20472;-55
2022/04/26 14:37:06;;;;;;;75.65;6.70;;;;;;;14.33;100.00;97782.97;5000019;28;20033;-55
2022/04/26 14:39:31;;;;;;;66.72;6.18;;;;;;;14.36;100.00;97794.13;5001220;28;20068;-56
2022/04/26 14:41:57;;;;;;;68.65;6.45;;;;;;;15.09;100.00;97787.97;5002293;28;20038;-55
2022/04/26 14:44:22;;;;;;;58.45;6.22;;;;;;;14.63;100.00;97793.41;5001934;28;20030;-56
2022/04/26 14:46:47;;;;;;;65.30;6.13;;;;;;;14.62;100.00;97789.97;5000979;28;20065;-57
2022/04/26 14:49:13;;;;;;;62.95;6.63;;;;;;;14.89;100.00;97797.09;5001116;28;20067;-56
2022/04/26 14:51:38;;;;;;;58.03;6.03;;;;;;;14.45;100.00;97793.56;5001218;28;20121;-55
2022/04/26 14:54:03;;;;;;;72.18;6.70;;;;;;;14.28;100.00;97799.00;5002139;28;20044;-55
2022/04/26 14:56:29;;;;;;;78.25;7.57;;;;;;;14.62;100.00;97800.47;5001742;28;20056;-57
2022/04/26 14:58:54;;;;;;;59.97;6.65;;;;;;;14.58;100.00;97795.50;5002706;28;20510;-56
2022/04/26 15:01:20;;;;;;;89.63;7.45;;;;;;;14.36;100.00;97798.53;5001063;28;20033;-56
2022/04/26 15:03:45;;;;;;;81.97;9.68;;;;;;;14.54;100.00;97804.44;4999161;28;20030;-56
2022/04/26 15:06:11;;;;;;;70.75;6.47;;;;;;;13.86;100.00;97808.44;5000045;28;20041;-55
2022/04/26 15:11:20;;;;;;;62.58;6.50;;;;;;;14.31;100.00;97800.59;5000850;28;20053;-55
2022/04/26 15:16:39;;;;;;;86.10;7.28;;;;;;;14.09;100.00;97807.09;5000677;28;20091;-56
2022/04/26 15:19:09;;;;;;;72.63;6.97;;;;;;;13.78;100.00;97803.59;4999553;28;20025;-57
2022/04/26 15:21:35;;;;;;;93.32;8.48;;;;;;;13.50;100.00;97814.81;5002179;28;20156;-54
2022/04/26 15:24:01;;;;;;;70.45;6.88;;;;;;;13.73;100.00;97803.06;5000956;28;20133;-55
2022/04/26 15:26:26;;;;;;;60.08;6.90;;;;;;;13.97;100.00;97790.31;5001252;28;20099;-55
2022/04/26 15:28:52;;;;;;;54.53;6.15;;;;;;;13.60;100.00;97804.66;5000186;28;20030;-54
2022/04/26 15:31:21;;;;;;;77.13;7.15;;;;;;;13.87;100.00;97804.88;5001033;28;20064;-55
2022/04/26 15:33:47;;;;;;;78.93;7.32;;;;;;;14.38;100.00;97802.75;4997683;28;20025;-55